sensor_id;sensor_type;location;lat;lon;timestamp;P1;durP1;ratioP1;P2;durP2;ratioP2
39442;SDS011;25147;52.142;9.960;2023-10-31T00:00:20;1.85;;;1.75;;
39442;SDS011;25147;52.142;9.960;2023-10-31T00:02:47;1.98;;;1.80;;
39442;SDS011;25147;52.142;9.960;2023-10-31T00:05:14;2.72;;;2.13;;
39442;SDS011;25147;52.142;9.960;2023-10-31T00:07:44;3.78;;;1.92;;
39442;SDS011;25147;52.142;9.960;2023-10-31T00:10:10;3.35;;;1.83;;
39442;SDS011;25147;52.142;9.960;2023-10-31T00:12:38;4.63;;;2.00;;
39442;SDS011;25147;52.142;9.960;2023-10-31T00:15:05;3.45;;;1.98;;
39442;SDS011;25147;52.142;9.960;2023-10-31T00:17:33;3.90;;;2.38;;
39442;SDS011;25147;52.142;9.960;2023-10-31T00:20:00;3.28;;;2.15;;
39442;SDS011;25147;52.142;9.960;2023-10-31T00:22:38;7.47;;;2.35;;
39442;SDS011;25147;52.142;9.960;2023-10-31T00:25:05;2.97;;;2.38;;
39442;SDS011;25147;52.142;9.960;2023-10-31T00:27:35;3.25;;;2.15;;
39442;SDS011;25147;52.142;9.960;2023-10-31T00:30:04;3.20;;;2.40;;
39442;SDS011;25147;52.142;9.960;2023-10-31T00:32:36;3.63;;;2.40;;
39442;SDS011;25147;52.142;9.960;2023-10-31T00:35:03;2.70;;;2.50;;
39442;SDS011;25147;52.142;9.960;2023-10-31T00:37:31;3.70;;;2.42;;
39442;SDS011;25147;52.142;9.960;2023-10-31T00:39:58;4.45;;;2.60;;
39442;SDS011;25147;52.142;9.960;2023-10-31T00:42:27;4.65;;;2.47;;
39442;SDS011;25147;52.142;9.960;2023-10-31T00:44:54;4.20;;;2.78;;
39442;SDS011;25147;52.142;9.960;2023-10-31T00:47:21;3.83;;;2.80;;
39442;SDS011;25147;52.142;9.960;2023-10-31T00:49:55;2.45;;;2.25;;
39442;SDS011;25147;52.142;9.960;2023-10-31T00:52:24;3.30;;;2.88;;
39442;SDS011;25147;52.142;9.960;2023-10-31T00:54:53;3.08;;;2.60;;
39442;SDS011;25147;52.142;9.960;2023-10-31T00:57:20;4.60;;;3.40;;
39442;SDS011;25147;52.142;9.960;2023-10-31T00:59:47;4.50;;;2.88;;
39442;SDS011;25147;52.142;9.960;2023-10-31T01:02:14;3.70;;;2.88;;
39442;SDS011;25147;52.142;9.960;2023-10-31T01:04:41;4.05;;;3.50;;
39442;SDS011;25147;52.142;9.960;2023-10-31T01:07:10;6.75;;;3.63;;
39442;SDS011;25147;52.142;9.960;2023-10-31T01:09:37;3.95;;;3.15;;
39442;SDS011;25147;52.142;9.960;2023-10-31T01:12:05;3.85;;;3.00;;
39442;SDS011;25147;52.142;9.960;2023-10-31T01:14:32;5.55;;;3.42;;
39442;SDS011;25147;52.142;9.960;2023-10-31T01:17:00;3.88;;;3.30;;
39442;SDS011;25147;52.142;9.960;2023-10-31T01:19:32;4.00;;;3.70;;
39442;SDS011;25147;52.142;9.960;2023-10-31T01:21:59;6.00;;;3.80;;
39442;SDS011;25147;52.142;9.960;2023-10-31T01:24:28;4.10;;;3.75;;
39442;SDS011;25147;52.142;9.960;2023-10-31T01:26:55;6.22;;;3.15;;
39442;SDS011;25147;52.142;9.960;2023-10-31T01:29:22;5.07;;;3.72;;
39442;SDS011;25147;52.142;9.960;2023-10-31T01:31:58;4.07;;;3.67;;
39442;SDS011;25147;52.142;9.960;2023-10-31T01:34:30;4.63;;;3.80;;
39442;SDS011;25147;52.142;9.960;2023-10-31T01:37:04;3.63;;;3.33;;
39442;SDS011;25147;52.142;9.960;2023-10-31T01:39:32;4.65;;;3.50;;
39442;SDS011;25147;52.142;9.960;2023-10-31T01:42:07;5.57;;;3.90;;
39442;SDS011;25147;52.142;9.960;2023-10-31T01:44:40;4.03;;;3.65;;
39442;SDS011;25147;52.142;9.960;2023-10-31T01:47:10;5.78;;;4.10;;
39442;SDS011;25147;52.142;9.960;2023-10-31T01:49:41;5.43;;;3.97;;
39442;SDS011;25147;52.142;9.960;2023-10-31T01:52:11;6.97;;;4.45;;
39442;SDS011;25147;52.142;9.960;2023-10-31T01:54:40;6.55;;;4.15;;
39442;SDS011;25147;52.142;9.960;2023-10-31T01:57:12;7.53;;;4.22;;
39442;SDS011;25147;52.142;9.960;2023-10-31T01:59:44;4.07;;;3.78;;
39442;SDS011;25147;52.142;9.960;2023-10-31T02:02:22;4.20;;;3.80;;
39442;SDS011;25147;52.142;9.960;2023-10-31T02:04:51;4.13;;;3.65;;
39442;SDS011;25147;52.142;9.960;2023-10-31T02:07:27;3.97;;;3.58;;
39442;SDS011;25147;52.142;9.960;2023-10-31T02:10:07;5.10;;;3.90;;
39442;SDS011;25147;52.142;9.960;2023-10-31T02:12:46;4.28;;;3.88;;
39442;SDS011;25147;52.142;9.960;2023-10-31T02:15:17;6.50;;;4.00;;
39442;SDS011;25147;52.142;9.960;2023-10-31T02:18:02;4.78;;;3.88;;
39442;SDS011;25147;52.142;9.960;2023-10-31T02:20:46;4.63;;;4.07;;
39442;SDS011;25147;52.142;9.960;2023-10-31T02:23:16;5.10;;;3.40;;
39442;SDS011;25147;52.142;9.960;2023-10-31T02:26:17;4.63;;;4.05;;
39442;SDS011;25147;52.142;9.960;2023-10-31T02:31:56;5.22;;;3.58;;
39442;SDS011;25147;52.142;9.960;2023-10-31T02:34:30;6.00;;;3.60;;
39442;SDS011;25147;52.142;9.960;2023-10-31T02:37:01;4.22;;;3.15;;
39442;SDS011;25147;52.142;9.960;2023-10-31T02:39:44;3.60;;;3.33;;
39442;SDS011;25147;52.142;9.960;2023-10-31T02:42:21;5.50;;;3.50;;
39442;SDS011;25147;52.142;9.960;2023-10-31T02:44:48;3.63;;;3.30;;
39442;SDS011;25147;52.142;9.960;2023-10-31T02:47:17;4.15;;;3.85;;
39442;SDS011;25147;52.142;9.960;2023-10-31T02:49:44;5.15;;;3.90;;
39442;SDS011;25147;52.142;9.960;2023-10-31T02:52:11;5.68;;;4.47;;
39442;SDS011;25147;52.142;9.960;2023-10-31T02:54:39;4.00;;;3.63;;
39442;SDS011;25147;52.142;9.960;2023-10-31T02:57:07;4.30;;;3.92;;
39442;SDS011;25147;52.142;9.960;2023-10-31T02:59:35;4.45;;;4.05;;
39442;SDS011;25147;52.142;9.960;2023-10-31T03:02:02;4.88;;;4.05;;
39442;SDS011;25147;52.142;9.960;2023-10-31T03:04:31;4.32;;;3.92;;
39442;SDS011;25147;52.142;9.960;2023-10-31T03:06:59;4.82;;;3.88;;
39442;SDS011;25147;52.142;9.960;2023-10-31T03:09:26;6.03;;;3.50;;
39442;SDS011;25147;52.142;9.960;2023-10-31T03:11:53;4.18;;;3.42;;
39442;SDS011;25147;52.142;9.960;2023-10-31T03:14:22;4.05;;;3.20;;
39442;SDS011;25147;52.142;9.960;2023-10-31T03:16:49;2.47;;;2.28;;
39442;SDS011;25147;52.142;9.960;2023-10-31T03:19:16;2.70;;;2.25;;
39442;SDS011;25147;52.142;9.960;2023-10-31T03:21:43;2.40;;;2.17;;
39442;SDS011;25147;52.142;9.960;2023-10-31T03:24:10;2.35;;;2.15;;
39442;SDS011;25147;52.142;9.960;2023-10-31T03:26:37;1.85;;;1.75;;
39442;SDS011;25147;52.142;9.960;2023-10-31T03:29:03;2.30;;;1.90;;
39442;SDS011;25147;52.142;9.960;2023-10-31T03:31:31;1.83;;;1.48;;
39442;SDS011;25147;52.142;9.960;2023-10-31T03:33:59;1.63;;;1.52;;
39442;SDS011;25147;52.142;9.960;2023-10-31T03:36:26;1.63;;;1.50;;
39442;SDS011;25147;52.142;9.960;2023-10-31T03:38:56;2.08;;;1.38;;
39442;SDS011;25147;52.142;9.960;2023-10-31T03:41:23;1.80;;;1.70;;
39442;SDS011;25147;52.142;9.960;2023-10-31T03:43:49;1.00;;;1.00;;
39442;SDS011;25147;52.142;9.960;2023-10-31T03:46:16;0.70;;;0.70;;
39442;SDS011;25147;52.142;9.960;2023-10-31T03:48:45;1.50;;;1.05;;
39442;SDS011;25147;52.142;9.960;2023-10-31T03:51:12;1.10;;;1.10;;
39442;SDS011;25147;52.142;9.960;2023-10-31T03:53:39;3.05;;;1.20;;
39442;SDS011;25147;52.142;9.960;2023-10-31T03:56:11;1.83;;;1.38;;
39442;SDS011;25147;52.142;9.960;2023-10-31T03:58:39;1.30;;;1.30;;
39442;SDS011;25147;52.142;9.960;2023-10-31T04:01:07;1.40;;;1.30;;
39442;SDS011;25147;52.142;9.960;2023-10-31T04:03:34;1.77;;;1.23;;
39442;SDS011;25147;52.142;9.960;2023-10-31T04:06:04;1.30;;;1.20;;
39442;SDS011;25147;52.142;9.960;2023-10-31T04:08:31;1.60;;;1.50;;
39442;SDS011;25147;52.142;9.960;2023-10-31T04:10:58;1.48;;;1.38;;
39442;SDS011;25147;52.142;9.960;2023-10-31T04:13:25;1.35;;;1.20;;
39442;SDS011;25147;52.142;9.960;2023-10-31T04:15:52;1.70;;;1.60;;
39442;SDS011;25147;52.142;9.960;2023-10-31T04:18:19;1.80;;;1.70;;
39442;SDS011;25147;52.142;9.960;2023-10-31T04:20:46;2.05;;;1.60;;
39442;SDS011;25147;52.142;9.960;2023-10-31T04:23:14;1.67;;;1.58;;
39442;SDS011;25147;52.142;9.960;2023-10-31T04:25:41;4.15;;;1.73;;
39442;SDS011;25147;52.142;9.960;2023-10-31T04:28:07;1.60;;;1.50;;
39442;SDS011;25147;52.142;9.960;2023-10-31T04:30:34;1.83;;;1.17;;
39442;SDS011;25147;52.142;9.960;2023-10-31T04:33:01;1.00;;;1.00;;
39442;SDS011;25147;52.142;9.960;2023-10-31T04:35:28;1.35;;;1.25;;
39442;SDS011;25147;52.142;9.960;2023-10-31T04:37:54;1.83;;;1.02;;
39442;SDS011;25147;52.142;9.960;2023-10-31T04:40:23;1.85;;;0.75;;
39442;SDS011;25147;52.142;9.960;2023-10-31T04:42:51;1.75;;;1.00;;
39442;SDS011;25147;52.142;9.960;2023-10-31T04:45:18;1.17;;;1.00;;
39442;SDS011;25147;52.142;9.960;2023-10-31T04:47:45;0.93;;;0.80;;
39442;SDS011;25147;52.142;9.960;2023-10-31T04:50:11;1.15;;;1.05;;
39442;SDS011;25147;52.142;9.960;2023-10-31T04:52:38;0.63;;;0.63;;
39442;SDS011;25147;52.142;9.960;2023-10-31T04:55:05;0.85;;;0.60;;
39442;SDS011;25147;52.142;9.960;2023-10-31T04:57:33;0.77;;;0.63;;
39442;SDS011;25147;52.142;9.960;2023-10-31T05:00:00;0.73;;;0.73;;
39442;SDS011;25147;52.142;9.960;2023-10-31T05:02:30;0.63;;;0.63;;
39442;SDS011;25147;52.142;9.960;2023-10-31T05:04:57;0.80;;;0.80;;
39442;SDS011;25147;52.142;9.960;2023-10-31T05:07:24;1.25;;;0.70;;
39442;SDS011;25147;52.142;9.960;2023-10-31T05:09:50;0.60;;;0.60;;
39442;SDS011;25147;52.142;9.960;2023-10-31T05:12:17;0.70;;;0.70;;
39442;SDS011;25147;52.142;9.960;2023-10-31T05:14:45;1.40;;;0.60;;
39442;SDS011;25147;52.142;9.960;2023-10-31T05:17:12;0.95;;;0.82;;
39442;SDS011;25147;52.142;9.960;2023-10-31T05:19:39;1.50;;;0.50;;
39442;SDS011;25147;52.142;9.960;2023-10-31T05:22:05;1.92;;;0.70;;
39442;SDS011;25147;52.142;9.960;2023-10-31T05:24:32;0.55;;;0.55;;
39442;SDS011;25147;52.142;9.960;2023-10-31T05:26:59;0.40;;;0.40;;
39442;SDS011;25147;52.142;9.960;2023-10-31T05:29:26;0.55;;;0.55;;
39442;SDS011;25147;52.142;9.960;2023-10-31T05:31:54;1.27;;;0.82;;
39442;SDS011;25147;52.142;9.960;2023-10-31T05:34:21;2.38;;;0.77;;
39442;SDS011;25147;52.142;9.960;2023-10-31T05:36:48;0.40;;;0.40;;
39442;SDS011;25147;52.142;9.960;2023-10-31T05:39:15;0.95;;;0.60;;
39442;SDS011;25147;52.142;9.960;2023-10-31T05:41:41;0.85;;;0.57;;
39442;SDS011;25147;52.142;9.960;2023-10-31T05:44:08;0.60;;;0.60;;
39442;SDS011;25147;52.142;9.960;2023-10-31T05:46:37;1.25;;;0.60;;
39442;SDS011;25147;52.142;9.960;2023-10-31T05:49:06;2.53;;;0.40;;
39442;SDS011;25147;52.142;9.960;2023-10-31T05:51:33;2.42;;;0.88;;
39442;SDS011;25147;52.142;9.960;2023-10-31T05:54:00;1.02;;;0.77;;
39442;SDS011;25147;52.142;9.960;2023-10-31T05:56:27;3.80;;;0.90;;
39442;SDS011;25147;52.142;9.960;2023-10-31T05:58:54;1.27;;;0.63;;
39442;SDS011;25147;52.142;9.960;2023-10-31T06:01:21;1.63;;;0.73;;
39442;SDS011;25147;52.142;9.960;2023-10-31T06:03:47;2.55;;;0.80;;
39442;SDS011;25147;52.142;9.960;2023-10-31T06:06:15;0.98;;;0.80;;
39442;SDS011;25147;52.142;9.960;2023-10-31T06:08:42;0.55;;;0.55;;
39442;SDS011;25147;52.142;9.960;2023-10-31T06:11:09;0.70;;;0.68;;
39442;SDS011;25147;52.142;9.960;2023-10-31T06:13:38;1.50;;;1.10;;
39442;SDS011;25147;52.142;9.960;2023-10-31T06:16:05;2.85;;;1.00;;
39442;SDS011;25147;52.142;9.960;2023-10-31T06:18:32;1.75;;;1.13;;
39442;SDS011;25147;52.142;9.960;2023-10-31T06:20:59;2.85;;;0.85;;
39442;SDS011;25147;52.142;9.960;2023-10-31T06:23:27;1.25;;;1.13;;
39442;SDS011;25147;52.142;9.960;2023-10-31T06:25:54;1.92;;;0.90;;
39442;SDS011;25147;52.142;9.960;2023-10-31T06:28:21;1.67;;;1.08;;
39442;SDS011;25147;52.142;9.960;2023-10-31T06:30:48;1.10;;;1.00;;
39442;SDS011;25147;52.142;9.960;2023-10-31T06:33:14;2.15;;;1.38;;
39442;SDS011;25147;52.142;9.960;2023-10-31T06:35:41;1.67;;;1.05;;
39442;SDS011;25147;52.142;9.960;2023-10-31T06:38:08;1.38;;;1.27;;
39442;SDS011;25147;52.142;9.960;2023-10-31T06:40:36;1.15;;;1.10;;
39442;SDS011;25147;52.142;9.960;2023-10-31T06:43:03;2.58;;;1.20;;
39442;SDS011;25147;52.142;9.960;2023-10-31T06:45:29;1.65;;;1.23;;
39442;SDS011;25147;52.142;9.960;2023-10-31T06:47:56;1.15;;;1.00;;
39442;SDS011;25147;52.142;9.960;2023-10-31T06:50:23;2.90;;;1.30;;
39442;SDS011;25147;52.142;9.960;2023-10-31T06:52:50;1.67;;;1.35;;
39442;SDS011;25147;52.142;9.960;2023-10-31T06:55:17;1.98;;;1.30;;
39442;SDS011;25147;52.142;9.960;2023-10-31T06:57:46;3.90;;;1.70;;
39442;SDS011;25147;52.142;9.960;2023-10-31T07:00:12;2.95;;;1.98;;
39442;SDS011;25147;52.142;9.960;2023-10-31T07:02:40;1.80;;;1.70;;
39442;SDS011;25147;52.142;9.960;2023-10-31T07:05:06;1.90;;;1.70;;
39442;SDS011;25147;52.142;9.960;2023-10-31T07:07:33;2.72;;;1.60;;
39442;SDS011;25147;52.142;9.960;2023-10-31T07:10:00;2.45;;;1.63;;
39442;SDS011;25147;52.142;9.960;2023-10-31T07:12:27;1.95;;;1.70;;
39442;SDS011;25147;52.142;9.960;2023-10-31T07:14:55;3.30;;;1.73;;
39442;SDS011;25147;52.142;9.960;2023-10-31T07:17:23;2.50;;;1.80;;
39442;SDS011;25147;52.142;9.960;2023-10-31T07:19:50;2.17;;;2.00;;
39442;SDS011;25147;52.142;9.960;2023-10-31T07:22:17;2.47;;;2.10;;
39442;SDS011;25147;52.142;9.960;2023-10-31T07:24:44;4.43;;;2.53;;
39442;SDS011;25147;52.142;9.960;2023-10-31T07:27:11;3.22;;;2.22;;
39442;SDS011;25147;52.142;9.960;2023-10-31T07:29:38;3.95;;;2.28;;
39442;SDS011;25147;52.142;9.960;2023-10-31T07:32:07;3.05;;;2.58;;
39442;SDS011;25147;52.142;9.960;2023-10-31T07:34:34;4.82;;;2.53;;
39442;SDS011;25147;52.142;9.960;2023-10-31T07:37:01;4.10;;;2.88;;
39442;SDS011;25147;52.142;9.960;2023-10-31T07:39:28;4.18;;;3.75;;
39442;SDS011;25147;52.142;9.960;2023-10-31T07:41:55;3.40;;;3.10;;
39442;SDS011;25147;52.142;9.960;2023-10-31T07:44:21;4.15;;;3.45;;
39442;SDS011;25147;52.142;9.960;2023-10-31T07:46:48;4.32;;;3.40;;
39442;SDS011;25147;52.142;9.960;2023-10-31T07:49:16;4.80;;;3.33;;
39442;SDS011;25147;52.142;9.960;2023-10-31T07:51:43;3.17;;;2.83;;
39442;SDS011;25147;52.142;9.960;2023-10-31T07:54:11;5.20;;;3.38;;
39442;SDS011;25147;52.142;9.960;2023-10-31T07:56:40;3.72;;;3.42;;
39442;SDS011;25147;52.142;9.960;2023-10-31T07:59:07;3.38;;;3.08;;
39442;SDS011;25147;52.142;9.960;2023-10-31T08:01:33;3.22;;;2.90;;
39442;SDS011;25147;52.142;9.960;2023-10-31T08:04:00;3.38;;;3.08;;
39442;SDS011;25147;52.142;9.960;2023-10-31T08:06:28;3.53;;;3.17;;
39442;SDS011;25147;52.142;9.960;2023-10-31T08:08:55;3.25;;;2.95;;
39442;SDS011;25147;52.142;9.960;2023-10-31T08:11:22;3.50;;;3.20;;
39442;SDS011;25147;52.142;9.960;2023-10-31T08:13:49;3.78;;;3.20;;
39442;SDS011;25147;52.142;9.960;2023-10-31T08:16:16;2.95;;;2.75;;
39442;SDS011;25147;52.142;9.960;2023-10-31T08:18:45;3.13;;;2.88;;
39442;SDS011;25147;52.142;9.960;2023-10-31T08:21:12;3.08;;;2.78;;
39442;SDS011;25147;52.142;9.960;2023-10-31T08:23:41;3.60;;;3.30;;
39442;SDS011;25147;52.142;9.960;2023-10-31T08:26:10;3.92;;;3.38;;
39442;SDS011;25147;52.142;9.960;2023-10-31T08:28:40;3.95;;;3.58;;
39442;SDS011;25147;52.142;9.960;2023-10-31T08:31:12;6.43;;;3.90;;
39442;SDS011;25147;52.142;9.960;2023-10-31T08:33:39;4.10;;;3.60;;
39442;SDS011;25147;52.142;9.960;2023-10-31T08:36:06;4.00;;;3.70;;
39442;SDS011;25147;52.142;9.960;2023-10-31T08:38:33;3.70;;;3.40;;
39442;SDS011;25147;52.142;9.960;2023-10-31T08:41:01;4.18;;;3.30;;
39442;SDS011;25147;52.142;9.960;2023-10-31T08:43:28;4.25;;;3.65;;
39442;SDS011;25147;52.142;9.960;2023-10-31T08:45:55;3.67;;;3.42;;
39442;SDS011;25147;52.142;9.960;2023-10-31T08:48:22;3.67;;;3.38;;
39442;SDS011;25147;52.142;9.960;2023-10-31T08:50:49;4.22;;;3.92;;
39442;SDS011;25147;52.142;9.960;2023-10-31T08:53:15;5.05;;;4.30;;
39442;SDS011;25147;52.142;9.960;2023-10-31T08:55:45;5.10;;;3.33;;
39442;SDS011;25147;52.142;9.960;2023-10-31T08:58:14;2.45;;;2.30;;
39442;SDS011;25147;52.142;9.960;2023-10-31T09:00:43;2.20;;;2.10;;
39442;SDS011;25147;52.142;9.960;2023-10-31T09:03:10;2.05;;;1.65;;
39442;SDS011;25147;52.142;9.960;2023-10-31T09:05:37;1.40;;;1.30;;
39442;SDS011;25147;52.142;9.960;2023-10-31T09:08:04;1.40;;;1.30;;
39442;SDS011;25147;52.142;9.960;2023-10-31T09:10:31;1.25;;;1.15;;
39442;SDS011;25147;52.142;9.960;2023-10-31T09:12:58;1.52;;;1.38;;
39442;SDS011;25147;52.142;9.960;2023-10-31T09:15:27;2.45;;;1.52;;
39442;SDS011;25147;52.142;9.960;2023-10-31T09:17:53;1.70;;;1.60;;
39442;SDS011;25147;52.142;9.960;2023-10-31T09:20:20;1.23;;;1.15;;
39442;SDS011;25147;52.142;9.960;2023-10-31T09:22:47;1.30;;;1.23;;
39442;SDS011;25147;52.142;9.960;2023-10-31T09:25:14;1.13;;;1.13;;
39442;SDS011;25147;52.142;9.960;2023-10-31T09:27:41;1.67;;;1.25;;
39442;SDS011;25147;52.142;9.960;2023-10-31T09:30:08;1.10;;;1.00;;
39442;SDS011;25147;52.142;9.960;2023-10-31T09:32:36;0.93;;;0.90;;
39442;SDS011;25147;52.142;9.960;2023-10-31T09:35:03;0.90;;;0.90;;
39442;SDS011;25147;52.142;9.960;2023-10-31T09:37:31;1.88;;;1.00;;
39442;SDS011;25147;52.142;9.960;2023-10-31T09:39:58;1.10;;;1.00;;
39442;SDS011;25147;52.142;9.960;2023-10-31T09:42:24;1.33;;;0.90;;
39442;SDS011;25147;52.142;9.960;2023-10-31T09:44:52;0.90;;;0.90;;
39442;SDS011;25147;52.142;9.960;2023-10-31T09:47:20;0.80;;;0.80;;
39442;SDS011;25147;52.142;9.960;2023-10-31T09:49:49;1.23;;;0.80;;
39442;SDS011;25147;52.142;9.960;2023-10-31T09:52:16;0.85;;;0.85;;
39442;SDS011;25147;52.142;9.960;2023-10-31T09:54:45;0.68;;;0.68;;
39442;SDS011;25147;52.142;9.960;2023-10-31T09:57:14;1.67;;;0.85;;
39442;SDS011;25147;52.142;9.960;2023-10-31T09:59:42;0.55;;;0.55;;
39442;SDS011;25147;52.142;9.960;2023-10-31T10:02:09;1.05;;;0.73;;
39442;SDS011;25147;52.142;9.960;2023-10-31T10:04:37;1.17;;;0.80;;
39442;SDS011;25147;52.142;9.960;2023-10-31T10:07:05;2.53;;;0.93;;
39442;SDS011;25147;52.142;9.960;2023-10-31T10:09:32;0.50;;;0.38;;
39442;SDS011;25147;52.142;9.960;2023-10-31T10:11:59;1.35;;;0.38;;
39442;SDS011;25147;52.142;9.960;2023-10-31T10:14:26;0.40;;;0.40;;
39442;SDS011;25147;52.142;9.960;2023-10-31T10:16:56;0.40;;;0.40;;
39442;SDS011;25147;52.142;9.960;2023-10-31T10:19:23;0.40;;;0.40;;
39442;SDS011;25147;52.142;9.960;2023-10-31T10:21:51;0.50;;;0.50;;
39442;SDS011;25147;52.142;9.960;2023-10-31T10:24:21;1.05;;;0.60;;
39442;SDS011;25147;52.142;9.960;2023-10-31T10:26:48;0.57;;;0.40;;
39442;SDS011;25147;52.142;9.960;2023-10-31T10:29:15;0.98;;;0.20;;
39442;SDS011;25147;52.142;9.960;2023-10-31T10:31:43;2.03;;;0.30;;
39442;SDS011;25147;52.142;9.960;2023-10-31T10:34:10;0.40;;;0.30;;
39442;SDS011;25147;52.142;9.960;2023-10-31T10:36:37;2.72;;;0.57;;
39442;SDS011;25147;52.142;9.960;2023-10-31T10:39:05;0.45;;;0.45;;
39442;SDS011;25147;52.142;9.960;2023-10-31T10:41:34;1.17;;;0.90;;
39442;SDS011;25147;52.142;9.960;2023-10-31T10:44:03;1.33;;;0.60;;
39442;SDS011;25147;52.142;9.960;2023-10-31T10:46:32;0.50;;;0.50;;
39442;SDS011;25147;52.142;9.960;2023-10-31T10:49:03;1.33;;;0.57;;
39442;SDS011;25147;52.142;9.960;2023-10-31T10:51:34;2.75;;;0.60;;
39442;SDS011;25147;52.142;9.960;2023-10-31T10:54:08;1.45;;;0.77;;
39442;SDS011;25147;52.142;9.960;2023-10-31T10:56:41;1.25;;;0.60;;
39442;SDS011;25147;52.142;9.960;2023-10-31T10:59:14;1.55;;;0.65;;
39442;SDS011;25147;52.142;9.960;2023-10-31T11:01:44;0.80;;;0.80;;
39442;SDS011;25147;52.142;9.960;2023-10-31T11:04:14;1.85;;;0.70;;
39442;SDS011;25147;52.142;9.960;2023-10-31T11:06:41;0.70;;;0.70;;
39442;SDS011;25147;52.142;9.960;2023-10-31T11:09:09;1.50;;;0.88;;
39442;SDS011;25147;52.142;9.960;2023-10-31T11:11:36;0.93;;;0.90;;
39442;SDS011;25147;52.142;9.960;2023-10-31T11:14:05;1.58;;;0.98;;
39442;SDS011;25147;52.142;9.960;2023-10-31T11:16:34;1.95;;;1.00;;
39442;SDS011;25147;52.142;9.960;2023-10-31T11:19:06;1.45;;;1.08;;
39442;SDS011;25147;52.142;9.960;2023-10-31T11:21:34;1.85;;;1.10;;
39442;SDS011;25147;52.142;9.960;2023-10-31T11:24:01;1.20;;;1.10;;
39442;SDS011;25147;52.142;9.960;2023-10-31T11:26:29;1.60;;;1.50;;
39442;SDS011;25147;52.142;9.960;2023-10-31T11:29:02;1.73;;;1.05;;
39442;SDS011;25147;52.142;9.960;2023-10-31T11:31:32;1.83;;;1.48;;
39442;SDS011;25147;52.142;9.960;2023-10-31T11:34:00;2.00;;;1.50;;
39442;SDS011;25147;52.142;9.960;2023-10-31T11:36:29;1.92;;;1.63;;
39442;SDS011;25147;52.142;9.960;2023-10-31T11:39:09;1.88;;;1.40;;
39442;SDS011;25147;52.142;9.960;2023-10-31T11:41:37;1.58;;;1.48;;
39442;SDS011;25147;52.142;9.960;2023-10-31T11:44:05;1.75;;;1.45;;
39442;SDS011;25147;52.142;9.960;2023-10-31T11:46:32;2.03;;;1.83;;
39442;SDS011;25147;52.142;9.960;2023-10-31T11:48:58;1.73;;;1.63;;
39442;SDS011;25147;52.142;9.960;2023-10-31T11:51:27;2.22;;;1.55;;
39442;SDS011;25147;52.142;9.960;2023-10-31T11:53:54;2.00;;;1.88;;
39442;SDS011;25147;52.142;9.960;2023-10-31T11:56:21;1.90;;;1.80;;
39442;SDS011;25147;52.142;9.960;2023-10-31T11:58:54;1.90;;;1.70;;
39442;SDS011;25147;52.142;9.960;2023-10-31T12:01:23;2.65;;;2.00;;
39442;SDS011;25147;52.142;9.960;2023-10-31T12:03:50;3.33;;;2.17;;
39442;SDS011;25147;52.142;9.960;2023-10-31T12:06:25;3.20;;;2.58;;
39442;SDS011;25147;52.142;9.960;2023-10-31T12:08:58;3.28;;;2.72;;
39442;SDS011;25147;52.142;9.960;2023-10-31T12:14:44;2.97;;;2.78;;
39442;SDS011;25147;52.142;9.960;2023-10-31T12:17:16;3.20;;;2.92;;
39442;SDS011;25147;52.142;9.960;2023-10-31T12:19:46;5.00;;;2.92;;
39442;SDS011;25147;52.142;9.960;2023-10-31T12:22:30;3.10;;;2.80;;
39442;SDS011;25147;52.142;9.960;2023-10-31T12:25:26;3.60;;;3.30;;
39442;SDS011;25147;52.142;9.960;2023-10-31T12:28:22;3.53;;;3.03;;
39442;SDS011;25147;52.142;9.960;2023-10-31T12:30:58;3.72;;;3.25;;
39442;SDS011;25147;52.142;9.960;2023-10-31T12:33:31;3.67;;;3.00;;
39442;SDS011;25147;52.142;9.960;2023-10-31T12:36:04;3.05;;;2.80;;
39442;SDS011;25147;52.142;9.960;2023-10-31T12:38:31;5.82;;;3.47;;
39442;SDS011;25147;52.142;9.960;2023-10-31T12:40:59;3.88;;;3.53;;
39442;SDS011;25147;52.142;9.960;2023-10-31T12:43:26;4.22;;;3.65;;
39442;SDS011;25147;52.142;9.960;2023-10-31T12:45:54;5.15;;;3.63;;
39442;SDS011;25147;52.142;9.960;2023-10-31T12:48:24;3.10;;;2.78;;
39442;SDS011;25147;52.142;9.960;2023-10-31T12:51:09;3.42;;;3.13;;
39442;SDS011;25147;52.142;9.960;2023-10-31T12:53:36;2.75;;;2.55;;
39442;SDS011;25147;52.142;9.960;2023-10-31T12:56:03;2.92;;;2.60;;
39442;SDS011;25147;52.142;9.960;2023-10-31T12:58:31;2.90;;;2.70;;
39442;SDS011;25147;52.142;9.960;2023-10-31T13:00:57;2.70;;;2.50;;
39442;SDS011;25147;52.142;9.960;2023-10-31T13:03:48;2.65;;;2.30;;
39442;SDS011;25147;52.142;9.960;2023-10-31T13:06:30;2.60;;;2.40;;
39442;SDS011;25147;52.142;9.960;2023-10-31T13:08:59;2.22;;;1.98;;
39442;SDS011;25147;52.142;9.960;2023-10-31T13:11:29;2.92;;;2.58;;
39442;SDS011;25147;52.142;9.960;2023-10-31T13:14:17;2.80;;;2.60;;
39442;SDS011;25147;52.142;9.960;2023-10-31T13:16:49;2.80;;;2.60;;
39442;SDS011;25147;52.142;9.960;2023-10-31T13:19:17;2.67;;;2.30;;
39442;SDS011;25147;52.142;9.960;2023-10-31T13:25:15;2.92;;;2.30;;
39442;SDS011;25147;52.142;9.960;2023-10-31T13:27:48;2.60;;;2.40;;
39442;SDS011;25147;52.142;9.960;2023-10-31T13:30:30;2.83;;;2.30;;
39442;SDS011;25147;52.142;9.960;2023-10-31T13:33:22;2.78;;;2.58;;
39442;SDS011;25147;52.142;9.960;2023-10-31T13:35:55;3.33;;;2.55;;
39442;SDS011;25147;52.142;9.960;2023-10-31T13:38:31;2.15;;;2.05;;
39442;SDS011;25147;52.142;9.960;2023-10-31T13:41:00;2.78;;;2.58;;
39442;SDS011;25147;52.142;9.960;2023-10-31T13:43:30;3.10;;;2.80;;
39442;SDS011;25147;52.142;9.960;2023-10-31T13:46:02;3.70;;;2.58;;
39442;SDS011;25147;52.142;9.960;2023-10-31T13:48:33;3.05;;;2.75;;
39442;SDS011;25147;52.142;9.960;2023-10-31T13:51:00;2.85;;;2.65;;
39442;SDS011;25147;52.142;9.960;2023-10-31T13:53:34;3.28;;;2.65;;
39442;SDS011;25147;52.142;9.960;2023-10-31T13:56:18;3.17;;;2.38;;
39442;SDS011;25147;52.142;9.960;2023-10-31T13:58:49;3.08;;;2.80;;
39442;SDS011;25147;52.142;9.960;2023-10-31T14:01:23;3.30;;;3.10;;
39442;SDS011;25147;52.142;9.960;2023-10-31T14:04:15;3.15;;;2.83;;
39442;SDS011;25147;52.142;9.960;2023-10-31T14:06:42;3.15;;;2.83;;
39442;SDS011;25147;52.142;9.960;2023-10-31T14:09:18;3.25;;;2.95;;
39442;SDS011;25147;52.142;9.960;2023-10-31T14:15:04;3.22;;;2.92;;
39442;SDS011;25147;52.142;9.960;2023-10-31T14:17:32;3.55;;;3.25;;
39442;SDS011;25147;52.142;9.960;2023-10-31T14:19:58;3.50;;;3.20;;
39442;SDS011;25147;52.142;9.960;2023-10-31T14:22:27;3.30;;;3.00;;
39442;SDS011;25147;52.142;9.960;2023-10-31T14:24:54;3.92;;;2.70;;
39442;SDS011;25147;52.142;9.960;2023-10-31T14:27:22;4.68;;;3.10;;
39442;SDS011;25147;52.142;9.960;2023-10-31T14:29:51;3.47;;;2.95;;
39442;SDS011;25147;52.142;9.960;2023-10-31T14:32:18;3.30;;;2.70;;
39442;SDS011;25147;52.142;9.960;2023-10-31T14:34:46;2.95;;;2.75;;
39442;SDS011;25147;52.142;9.960;2023-10-31T14:37:14;4.43;;;3.45;;
39442;SDS011;25147;52.142;9.960;2023-10-31T14:39:40;3.47;;;3.17;;
39442;SDS011;25147;52.142;9.960;2023-10-31T14:42:09;5.22;;;2.97;;
39442;SDS011;25147;52.142;9.960;2023-10-31T14:44:39;3.53;;;3.22;;
39442;SDS011;25147;52.142;9.960;2023-10-31T14:47:05;3.95;;;3.55;;
39442;SDS011;25147;52.142;9.960;2023-10-31T14:49:36;6.53;;;3.88;;
39442;SDS011;25147;52.142;9.960;2023-10-31T14:52:05;3.97;;;3.58;;
39442;SDS011;25147;52.142;9.960;2023-10-31T14:54:35;4.28;;;3.80;;
39442;SDS011;25147;52.142;9.960;2023-10-31T14:57:02;4.30;;;3.90;;
39442;SDS011;25147;52.142;9.960;2023-10-31T14:59:29;4.53;;;3.88;;
39442;SDS011;25147;52.142;9.960;2023-10-31T15:01:56;5.32;;;4.10;;
39442;SDS011;25147;52.142;9.960;2023-10-31T15:04:23;5.13;;;4.47;;
39442;SDS011;25147;52.142;9.960;2023-10-31T15:06:50;4.53;;;4.13;;
39442;SDS011;25147;52.142;9.960;2023-10-31T15:09:17;6.18;;;4.55;;
39442;SDS011;25147;52.142;9.960;2023-10-31T15:11:54;5.57;;;4.47;;